sensor_id;sensor_type;location;lat;lon;timestamp;pressure;altitude;pressure_sealevel;temperature;humidity
27805;BME280;15183;51.350;11.102;2023-01-25T00:00:29;102082.91;;;4.62;68.04
27805;BME280;15183;51.350;11.102;2023-01-25T00:02:56;102080.69;;;4.58;68.57
27805;BME280;15183;51.350;11.102;2023-01-25T00:05:23;102060.59;;;4.47;68.63
27805;BME280;15183;51.350;11.102;2023-01-25T00:07:49;102162.75;;;5.02;68.66
27805;BME280;15183;51.350;11.102;2023-01-25T00:10:16;102131.56;;;4.88;68.80
27805;BME280;15183;51.350;11.102;2023-01-25T00:12:45;102105.00;;;4.81;68.80
27805;BME280;15183;51.350;11.102;2023-01-25T00:15:12;102048.03;;;4.51;69.03
27805;BME280;15183;51.350;11.102;2023-01-25T00:17:38;102106.66;;;4.82;69.03
27805;BME280;15183;51.350;11.102;2023-01-25T00:20:05;102155.88;;;5.11;68.89
27805;BME280;15183;51.350;11.102;2023-01-25T00:22:32;102154.19;;;5.10;68.72
27805;BME280;15183;51.350;11.102;2023-01-25T00:24:58;102102.22;;;4.83;68.74
27805;BME280;15183;51.350;11.102;2023-01-25T00:27:25;102112.34;;;4.87;68.66
27805;BME280;15183;51.350;11.102;2023-01-25T00:29:51;102140.63;;;5.05;68.69
27805;BME280;15183;51.350;11.102;2023-01-25T00:34:49;102087.16;;;4.75;68.75
27805;BME280;15183;51.350;11.102;2023-01-25T00:37:38;102131.22;;;5.02;68.73
27805;BME280;15183;51.350;11.102;2023-01-25T00:40:06;102130.66;;;4.99;68.85
27805;BME280;15183;51.350;11.102;2023-01-25T00:42:32;102083.34;;;4.68;68.77
27805;BME280;15183;51.350;11.102;2023-01-25T00:44:59;102073.25;;;4.63;68.80
27805;BME280;15183;51.350;11.102;2023-01-25T00:47:25;102126.44;;;4.86;68.64
27805;BME280;15183;51.350;11.102;2023-01-25T00:49:52;102094.56;;;4.70;68.81
27805;BME280;15183;51.350;11.102;2023-01-25T00:52:19;102124.63;;;4.87;68.82
27805;BME280;15183;51.350;11.102;2023-01-25T00:54:47;102102.38;;;4.81;69.15
27805;BME280;15183;51.350;11.102;2023-01-25T00:57:13;102115.84;;;4.98;69.29
27805;BME280;15183;51.350;11.102;2023-01-25T00:59:40;102110.06;;;5.04;68.91
27805;BME280;15183;51.350;11.102;2023-01-25T01:02:10;102077.38;;;4.87;68.92
27805;BME280;15183;51.350;11.102;2023-01-25T01:04:37;102124.22;;;5.13;69.01
27805;BME280;15183;51.350;11.102;2023-01-25T01:07:04;102119.22;;;5.10;68.44
27805;BME280;15183;51.350;11.102;2023-01-25T01:09:31;102033.44;;;4.58;68.97
27805;BME280;15183;51.350;11.102;2023-01-25T01:11:59;102121.69;;;5.11;nan
27805;BME280;15183;51.350;11.102;2023-01-25T01:14:26;102125.00;;;5.03;68.56
27805;BME280;15183;51.350;11.102;2023-01-25T01:16:52;102110.09;;;4.83;68.55
27805;BME280;15183;51.350;11.102;2023-01-25T01:19:19;102093.47;;;4.72;68.79
27805;BME280;15183;51.350;11.102;2023-01-25T01:21:45;102108.53;;;4.70;68.89
27805;BME280;15183;51.350;11.102;2023-01-25T01:24:12;102071.00;;;4.58;68.95
27805;BME280;15183;51.350;11.102;2023-01-25T01:26:38;102089.72;;;4.65;68.65
27805;BME280;15183;51.350;11.102;2023-01-25T01:29:05;102062.59;;;4.55;69.04
27805;BME280;15183;51.350;11.102;2023-01-25T01:31:32;102023.41;;;4.42;69.36
27805;BME280;15183;51.350;11.102;2023-01-25T01:33:58;102097.34;;;4.99;69.31
27805;BME280;15183;51.350;11.102;2023-01-25T01:36:28;102060.34;;;4.81;68.98
27805;BME280;15183;51.350;11.102;2023-01-25T01:38:57;102081.59;;;4.99;68.76
27805;BME280;15183;51.350;11.102;2023-01-25T01:41:23;102054.00;;;4.84;69.09
27805;BME280;15183;51.350;11.102;2023-01-25T01:43:50;102105.97;;;5.21;69.04
27805;BME280;15183;51.350;11.102;2023-01-25T01:46:53;102111.13;;;5.22;68.38
27805;BME280;15183;51.350;11.102;2023-01-25T01:49:26;102103.06;;;5.14;68.55
27805;BME280;15183;51.350;11.102;2023-01-25T01:52:04;102110.00;;;5.15;68.88
27805;BME280;15183;51.350;11.102;2023-01-25T01:54:43;102099.03;;;5.10;68.87
27805;BME280;15183;51.350;11.102;2023-01-25T01:57:54;102103.19;;;5.13;68.99
27805;BME280;15183;51.350;11.102;2023-01-25T02:00:34;102111.13;;;5.22;69.14
27805;BME280;15183;51.350;11.102;2023-01-25T02:03:03;102059.41;;;4.92;68.97
27805;BME280;15183;51.350;11.102;2023-01-25T02:05:37;102086.63;;;5.22;69.37
27805;BME280;15183;51.350;11.102;2023-01-25T02:08:09;102069.47;;;5.18;69.02
27805;BME280;15183;51.350;11.102;2023-01-25T02:10:37;102080.59;;;5.31;68.67
27805;BME280;15183;51.350;11.102;2023-01-25T02:13:04;102082.63;;;5.28;69.12
27805;BME280;15183;51.350;11.102;2023-01-25T02:15:46;102062.28;;;5.20;68.49
27805;BME280;15183;51.350;11.102;2023-01-25T02:18:15;102085.94;;;5.20;68.55
27805;BME280;15183;51.350;11.102;2023-01-25T02:20:46;102056.03;;;5.11;68.73
27805;BME280;15183;51.350;11.102;2023-01-25T02:23:44;102053.28;;;5.13;69.09
27805;BME280;15183;51.350;11.102;2023-01-25T02:26:14;102068.53;;;5.29;69.03
27805;BME280;15183;51.350;11.102;2023-01-25T02:29:05;102052.50;;;5.32;69.41
27805;BME280;15183;51.350;11.102;2023-01-25T02:31:33;102060.44;;;5.52;69.54
27805;BME280;15183;51.350;11.102;2023-01-25T02:33:59;102036.47;;;5.45;69.37
27805;BME280;15183;51.350;11.102;2023-01-25T02:36:30;102063.72;;;5.63;68.77
27805;BME280;15183;51.350;11.102;2023-01-25T02:44:47;102041.19;;;5.51;68.24
27805;BME280;15183;51.350;11.102;2023-01-25T02:47:15;102021.78;;;5.32;68.81
27805;BME280;15183;51.350;11.102;2023-01-25T02:49:42;102028.97;;;5.40;68.65
27805;BME280;15183;51.350;11.102;2023-01-25T02:52:08;102023.72;;;5.40;69.31
27805;BME280;15183;51.350;11.102;2023-01-25T02:54:35;102015.44;;;5.45;69.00
27805;BME280;15183;51.350;11.102;2023-01-25T02:57:01;102015.28;;;5.46;69.19
27805;BME280;15183;51.350;11.102;2023-01-25T02:59:27;101995.38;;;5.44;68.60
27805;BME280;15183;51.350;11.102;2023-01-25T03:02:12;102002.72;;;5.50;68.35
27805;BME280;15183;51.350;11.102;2023-01-25T03:04:39;102008.38;;;5.55;68.54
27805;BME280;15183;51.350;11.102;2023-01-25T03:07:05;101995.91;;;5.47;68.32
27805;BME280;15183;51.350;11.102;2023-01-25T03:09:32;101967.13;;;5.36;68.70
27805;BME280;15183;51.350;11.102;2023-01-25T03:11:58;101991.50;;;5.58;68.77
27805;BME280;15183;51.350;11.102;2023-01-25T03:14:25;102001.75;;;5.71;69.05
27805;BME280;15183;51.350;11.102;2023-01-25T03:16:51;101984.31;;;5.70;68.93
27805;BME280;15183;51.350;11.102;2023-01-25T03:19:17;101911.66;;;5.29;68.85
27805;BME280;15183;51.350;11.102;2023-01-25T03:21:44;101936.44;;;5.36;68.24
27805;BME280;15183;51.350;11.102;2023-01-25T03:24:11;101978.09;;;5.71;68.46
27805;BME280;15183;51.350;11.102;2023-01-25T03:26:38;101978.91;;;5.61;68.37
27805;BME280;15183;51.350;11.102;2023-01-25T03:29:40;101965.91;;;5.50;68.79
27805;BME280;15183;51.350;11.102;2023-01-25T03:32:07;101923.84;;;5.20;68.50
27805;BME280;15183;51.350;11.102;2023-01-25T03:34:34;101999.25;;;5.69;68.45
27805;BME280;15183;51.350;11.102;2023-01-25T03:37:00;101980.84;;;5.59;68.35
27805;BME280;15183;51.350;11.102;2023-01-25T03:39:27;101939.75;;;5.48;68.88
27805;BME280;15183;51.350;11.102;2023-01-25T03:41:54;101938.22;;;5.56;68.77
27805;BME280;15183;51.350;11.102;2023-01-25T03:44:20;102003.09;;;5.94;68.41
27805;BME280;15183;51.350;11.102;2023-01-25T03:46:46;101986.78;;;5.91;68.82
27805;BME280;15183;51.350;11.102;2023-01-25T03:49:15;101996.03;;;6.05;68.59
27805;BME280;15183;51.350;11.102;2023-01-25T03:51:43;101923.84;;;5.50;68.20
27805;BME280;15183;51.350;11.102;2023-01-25T03:54:10;101900.47;;;5.37;68.05
27805;BME280;15183;51.350;11.102;2023-01-25T03:56:37;101898.97;;;5.34;67.59
27805;BME280;15183;51.350;11.102;2023-01-25T03:59:04;101975.31;;;5.82;68.32
27805;BME280;15183;51.350;11.102;2023-01-25T04:01:30;101962.84;;;5.74;68.48
27805;BME280;15183;51.350;11.102;2023-01-25T04:03:57;101989.13;;;5.94;68.78
27805;BME280;15183;51.350;11.102;2023-01-25T04:06:23;101942.66;;;5.75;68.73
27805;BME280;15183;51.350;11.102;2023-01-25T04:08:49;101885.25;;;5.41;69.16
27805;BME280;15183;51.350;11.102;2023-01-25T04:11:16;101944.25;;;5.86;68.52
27805;BME280;15183;51.350;11.102;2023-01-25T04:13:42;101868.22;;;5.35;68.03
27805;BME280;15183;51.350;11.102;2023-01-25T04:16:09;101941.97;;;5.73;68.36
27805;BME280;15183;51.350;11.102;2023-01-25T04:18:38;101972.94;;;5.89;67.85
27805;BME280;15183;51.350;11.102;2023-01-25T04:21:06;101975.72;;;5.77;67.32
27805;BME280;15183;51.350;11.102;2023-01-25T04:23:32;101926.06;;;5.45;67.85
27805;BME280;15183;51.350;11.102;2023-01-25T04:26:05;101950.13;;;5.50;68.09
27805;BME280;15183;51.350;11.102;2023-01-25T04:28:33;101954.00;;;5.36;67.74
27805;BME280;15183;51.350;11.102;2023-01-25T04:31:00;101861.84;;;4.69;67.82
27805;BME280;15183;51.350;11.102;2023-01-25T04:33:28;101940.31;;;5.22;68.92
27805;BME280;15183;51.350;11.102;2023-01-25T04:35:55;101862.53;;;4.71;69.07
27805;BME280;15183;51.350;11.102;2023-01-25T04:38:21;101939.06;;;5.27;68.80
27805;BME280;15183;51.350;11.102;2023-01-25T04:40:49;101946.97;;;5.36;68.46
27805;BME280;15183;51.350;11.102;2023-01-25T04:43:17;101932.69;;;5.29;69.01
27805;BME280;15183;51.350;11.102;2023-01-25T04:45:44;101934.91;;;5.44;69.14
27805;BME280;15183;51.350;11.102;2023-01-25T04:48:12;101946.66;;;5.59;69.37
27805;BME280;15183;51.350;11.102;2023-01-25T04:50:40;101932.25;;;5.63;69.17
27805;BME280;15183;51.350;11.102;2023-01-25T04:53:08;101945.53;;;5.82;68.77
27805;BME280;15183;51.350;11.102;2023-01-25T04:55:35;101913.72;;;5.75;69.40
27805;BME280;15183;51.350;11.102;2023-01-25T04:58:02;101942.03;;;6.01;69.14
27805;BME280;15183;51.350;11.102;2023-01-25T05:00:29;101869.59;;;5.59;69.05
27805;BME280;15183;51.350;11.102;2023-01-25T05:02:56;101914.63;;;6.03;69.06
27805;BME280;15183;51.350;11.102;2023-01-25T05:05:22;101939.91;;;6.24;69.02
27805;BME280;15183;51.350;11.102;2023-01-25T05:07:49;101933.94;;;6.22;68.70
27805;BME280;15183;51.350;11.102;2023-01-25T05:10:15;101937.81;;;6.28;68.20
27805;BME280;15183;51.350;11.102;2023-01-25T05:12:42;101927.84;;;6.31;69.05
27805;BME280;15183;51.350;11.102;2023-01-25T05:15:09;101920.38;;;6.27;68.59
27805;BME280;15183;51.350;11.102;2023-01-25T05:17:35;101911.09;;;6.22;68.65
27805;BME280;15183;51.350;11.102;2023-01-25T05:20:03;101854.00;;;5.85;68.57
27805;BME280;15183;51.350;11.102;2023-01-25T05:22:30;101903.50;;;6.19;68.39
27805;BME280;15183;51.350;11.102;2023-01-25T05:24:56;101865.47;;;5.94;68.82
27805;BME280;15183;51.350;11.102;2023-01-25T05:27:24;101912.97;;;6.40;68.62
27805;BME280;15183;51.350;11.102;2023-01-25T05:29:50;101877.19;;;6.19;68.80
27805;BME280;15183;51.350;11.102;2023-01-25T05:32:20;101834.22;;;5.91;68.49
27805;BME280;15183;51.350;11.102;2023-01-25T05:34:47;101821.91;;;5.82;68.38
27805;BME280;15183;51.350;11.102;2023-01-25T05:37:18;101819.44;;;5.80;68.17
27805;BME280;15183;51.350;11.102;2023-01-25T05:39:44;101870.28;;;5.99;68.08
27805;BME280;15183;51.350;11.102;2023-01-25T05:42:16;101908.75;;;6.19;67.88
27805;BME280;15183;51.350;11.102;2023-01-25T05:44:43;101909.34;;;6.13;67.92
27805;BME280;15183;51.350;11.102;2023-01-25T05:47:16;101925.53;;;6.18;68.22
27805;BME280;15183;51.350;11.102;2023-01-25T05:49:42;101907.56;;;6.04;68.00
27805;BME280;15183;51.350;11.102;2023-01-25T05:52:16;101910.72;;;5.98;67.90
27805;BME280;15183;51.350;11.102;2023-01-25T05:54:42;101904.00;;;5.85;67.98
27805;BME280;15183;51.350;11.102;2023-01-25T05:57:09;101943.00;;;6.00;68.50
27805;BME280;15183;51.350;11.102;2023-01-25T05:59:35;101921.53;;;5.94;68.55
27805;BME280;15183;51.350;11.102;2023-01-25T06:02:02;101880.22;;;5.67;68.68
27805;BME280;15183;51.350;11.102;2023-01-25T06:04:28;101897.88;;;5.85;68.90
27805;BME280;15183;51.350;11.102;2023-01-25T06:06:55;101879.66;;;5.73;68.73
27805;BME280;15183;51.350;11.102;2023-01-25T06:09:21;101908.84;;;5.90;68.73
27805;BME280;15183;51.350;11.102;2023-01-25T06:11:48;101916.00;;;5.98;68.59
27805;BME280;15183;51.350;11.102;2023-01-25T06:14:15;101921.25;;;5.98;68.24
27805;BME280;15183;51.350;11.102;2023-01-25T06:16:41;101920.16;;;5.90;68.04
27805;BME280;15183;51.350;11.102;2023-01-25T06:19:08;101913.25;;;5.89;68.20
27805;BME280;15183;51.350;11.102;2023-01-25T06:21:34;101921.03;;;5.91;68.48
27805;BME280;15183;51.350;11.102;2023-01-25T06:24:04;101919.19;;;5.91;68.67
27805;BME280;15183;51.350;11.102;2023-01-25T06:26:31;101895.59;;;5.72;67.97
27805;BME280;15183;51.350;11.102;2023-01-25T06:28:57;101917.72;;;5.79;68.49
27805;BME280;15183;51.350;11.102;2023-01-25T06:31:24;101884.91;;;5.63;68.24
27805;BME280;15183;51.350;11.102;2023-01-25T06:33:51;101914.50;;;5.85;68.64
27805;BME280;15183;51.350;11.102;2023-01-25T06:36:19;101880.63;;;5.72;68.95
27805;BME280;15183;51.350;11.102;2023-01-25T06:38:51;101888.09;;;5.77;68.18
27805;BME280;15183;51.350;11.102;2023-01-25T06:41:18;101891.13;;;5.72;68.36
27805;BME280;15183;51.350;11.102;2023-01-25T06:43:46;101911.09;;;5.75;68.53
27805;BME280;15183;51.350;11.102;2023-01-25T06:46:13;101905.25;;;5.71;68.10
27805;BME280;15183;51.350;11.102;2023-01-25T06:48:39;101898.91;;;5.74;68.52
27805;BME280;15183;51.350;11.102;2023-01-25T06:51:11;101821.63;;;5.27;68.13
27805;BME280;15183;51.350;11.102;2023-01-25T06:53:41;101820.00;;;5.16;68.01
27805;BME280;15183;51.350;11.102;2023-01-25T06:56:18;101905.13;;;5.73;68.43
27805;BME280;15183;51.350;11.102;2023-01-25T06:58:45;101861.81;;;5.57;68.56
27805;BME280;15183;51.350;11.102;2023-01-25T07:01:23;101867.53;;;5.53;68.59
27805;BME280;15183;51.350;11.102;2023-01-25T07:03:55;101906.22;;;5.80;68.08
27805;BME280;15183;51.350;11.102;2023-01-25T07:06:23;101908.41;;;5.85;68.22
27805;BME280;15183;51.350;11.102;2023-01-25T07:08:51;101875.53;;;5.71;68.72
27805;BME280;15183;51.350;11.102;2023-01-25T07:11:17;101882.84;;;5.77;68.28
27805;BME280;15183;51.350;11.102;2023-01-25T07:13:45;101872.50;;;5.56;68.74
27805;BME280;15183;51.350;11.102;2023-01-25T07:16:17;101868.47;;;5.61;68.19
27805;BME280;15183;51.350;11.102;2023-01-25T07:18:45;101877.03;;;5.63;68.10
27805;BME280;15183;51.350;11.102;2023-01-25T07:21:22;101814.59;;;5.18;68.61
27805;BME280;15183;51.350;11.102;2023-01-25T07:23:49;101887.44;;;5.65;68.43
27805;BME280;15183;51.350;11.102;2023-01-25T07:26:20;101876.22;;;5.63;68.60
27805;BME280;15183;51.350;11.102;2023-01-25T07:28:48;101870.94;;;5.73;69.01
27805;BME280;15183;51.350;11.102;2023-01-25T07:31:17;101863.19;;;5.71;68.91
27805;BME280;15183;51.350;11.102;2023-01-25T07:33:51;101893.16;;;5.98;68.80
27805;BME280;15183;51.350;11.102;2023-01-25T07:36:18;101827.81;;;5.56;68.45
27805;BME280;15183;51.350;11.102;2023-01-25T07:38:45;101871.16;;;5.89;67.82
27805;BME280;15183;51.350;11.102;2023-01-25T07:41:12;101883.59;;;5.97;68.32
27805;BME280;15183;51.350;11.102;2023-01-25T07:43:38;101875.84;;;6.05;68.09
27805;BME280;15183;51.350;11.102;2023-01-25T07:46:08;101862.56;;;6.07;68.44
27805;BME280;15183;51.350;11.102;2023-01-25T07:48:40;101864.22;;;6.08;67.88
27805;BME280;15183;51.350;11.102;2023-01-25T07:51:08;101860.91;;;5.96;67.81
27805;BME280;15183;51.350;11.102;2023-01-25T07:53:42;101862.56;;;6.07;67.83
27805;BME280;15183;51.350;11.102;2023-01-25T07:56:11;101859.50;;;6.02;67.71
27805;BME280;15183;51.350;11.102;2023-01-25T07:58:38;101848.44;;;5.98;67.94
27805;BME280;15183;51.350;11.102;2023-01-25T08:01:10;101842.31;;;5.98;68.01
27805;BME280;15183;51.350;11.102;2023-01-25T08:03:40;101852.31;;;6.04;68.27
27805;BME280;15183;51.350;11.102;2023-01-25T08:06:07;101844.97;;;6.07;68.45
27805;BME280;15183;51.350;11.102;2023-01-25T08:08:38;101850.47;;;6.14;68.35
27805;BME280;15183;51.350;11.102;2023-01-25T08:11:17;101839.28;;;6.12;68.45
27805;BME280;15183;51.350;11.102;2023-01-25T08:13:45;101860.75;;;6.35;68.54
27805;BME280;15183;51.350;11.102;2023-01-25T08:16:13;101848.56;;;6.34;68.80
27805;BME280;15183;51.350;11.102;2023-01-25T08:18:40;101843.31;;;6.34;68.79
27805;BME280;15183;51.350;11.102;2023-01-25T08:21:07;101874.94;;;6.53;68.31
27805;BME280;15183;51.350;11.102;2023-01-25T08:23:34;101852.66;;;6.47;68.73
27805;BME280;15183;51.350;11.102;2023-01-25T08:26:05;101842.50;;;6.52;68.75
27805;BME280;15183;51.350;11.102;2023-01-25T08:28:32;101832.88;;;6.61;68.65
27805;BME280;15183;51.350;11.102;2023-01-25T08:31:23;101856.44;;;6.80;68.65
27805;BME280;15183;51.350;11.102;2023-01-25T08:33:50;101850.19;;;6.81;68.27
27805;BME280;15183;51.350;11.102;2023-01-25T08:36:18;101849.50;;;6.79;68.24
27805;BME280;15183;51.350;11.102;2023-01-25T08:38:46;101859.47;;;6.86;68.11
27805;BME280;15183;51.350;11.102;2023-01-25T08:41:17;101849.06;;;6.84;68.39
27805;BME280;15183;51.350;11.102;2023-01-25T08:43:45;101844.41;;;6.78;68.49
27805;BME280;15183;51.350;11.102;2023-01-25T08:46:15;101846.00;;;6.89;68.25
27805;BME280;15183;51.350;11.102;2023-01-25T08:48:41;101857.59;;;6.96;68.38
27805;BME280;15183;51.350;11.102;2023-01-25T08:51:11;101840.94;;;6.95;68.24
27805;BME280;15183;51.350;11.102;2023-01-25T08:53:39;101811.66;;;6.80;68.63
27805;BME280;15183;51.350;11.102;2023-01-25T08:56:08;101851.94;;;7.09;68.35
27805;BME280;15183;51.350;11.102;2023-01-25T08:58:50;101836.13;;;7.09;68.22
27805;BME280;15183;51.350;11.102;2023-01-25T09:01:18;101811.50;;;7.00;67.79
27805;BME280;15183;51.350;11.102;2023-01-25T09:03:48;101839.34;;;7.21;68.00
27805;BME280;15183;51.350;11.102;2023-01-25T09:06:18;101816.09;;;7.16;67.94
27805;BME280;15183;51.350;11.102;2023-01-25T09:08:45;101822.75;;;7.29;67.79
27805;BME280;15183;51.350;11.102;2023-01-25T09:11:15;101830.88;;;7.35;67.62
27805;BME280;15183;51.350;11.102;2023-01-25T09:13:43;101813.84;;;7.30;67.72
27805;BME280;15183;51.350;11.102;2023-01-25T09:16:16;101814.69;;;7.30;67.91
27805;BME280;15183;51.350;11.102;2023-01-25T09:18:43;101742.34;;;6.80;67.58
27805;BME280;15183;51.350;11.102;2023-01-25T09:21:19;101816.09;;;7.43;67.62
27805;BME280;15183;51.350;11.102;2023-01-25T09:23:50;101821.38;;;7.43;67.73
27805;BME280;15183;51.350;11.102;2023-01-25T09:26:18;101789.16;;;7.31;67.76
27805;BME280;15183;51.350;11.102;2023-01-25T09:28:51;101798.56;;;7.33;67.35
27805;BME280;15183;51.350;11.102;2023-01-25T09:31:19;101782.19;;;7.21;67.38
27805;BME280;15183;51.350;11.102;2023-01-25T09:33:46;101822.06;;;7.27;67.20
27805;BME280;15183;51.350;11.102;2023-01-25T09:36:13;101796.78;;;7.16;67.58
27805;BME280;15183;51.350;11.102;2023-01-25T09:38:39;101789.97;;;7.05;68.01
27805;BME280;15183;51.350;11.102;2023-01-25T09:41:43;101787.91;;;7.17;68.03
27805;BME280;15183;51.350;11.102;2023-01-25T09:47:20;101796.38;;;7.29;67.79
27805;BME280;15183;51.350;11.102;2023-01-25T09:55:59;101781.38;;;7.21;68.12
27805;BME280;15183;51.350;11.102;2023-01-25T09:58:33;101786.31;;;7.24;68.12
27805;BME280;15183;51.350;11.102;2023-01-25T10:01:34;101780.59;;;7.10;67.25
27805;BME280;15183;51.350;11.102;2023-01-25T10:04:20;101778.31;;;6.89;67.85
27805;BME280;15183;51.350;11.102;2023-01-25T10:06:52;101708.50;;;6.31;68.21
27805;BME280;15183;51.350;11.102;2023-01-25T10:12:19;101765.88;;;6.81;68.26
27805;BME280;15183;51.350;11.102;2023-01-25T10:14:48;101717.94;;;6.51;68.00
27805;BME280;15183;51.350;11.102;2023-01-25T10:17:29;101768.34;;;7.01;68.47
27805;BME280;15183;51.350;11.102;2023-01-25T10:20:29;101764.59;;;7.04;67.81
27805;BME280;15183;51.350;11.102;2023-01-25T10:25:37;101760.97;;;7.05;68.16
27805;BME280;15183;51.350;11.102;2023-01-25T10:31:19;101748.97;;;7.10;68.69
27805;BME280;15183;51.350;11.102;2023-01-25T10:33:48;101715.28;;;6.96;68.30
27805;BME280;15183;51.350;11.102;2023-01-25T10:36:20;101748.44;;;7.25;68.03
27805;BME280;15183;51.350;11.102;2023-01-25T10:38:48;101737.94;;;7.33;68.02
27805;BME280;15183;51.350;11.102;2023-01-25T10:41:41;101720.19;;;7.17;67.89
27805;BME280;15183;51.350;11.102;2023-01-25T10:44:13;101729.50;;;7.30;67.92
27805;BME280;15183;51.350;11.102;2023-01-25T10:47:16;101733.53;;;7.42;68.15
27805;BME280;15183;51.350;11.102;2023-01-25T10:49:55;101724.56;;;7.35;67.55
27805;BME280;15183;51.350;11.102;2023-01-25T10:52:23;101726.75;;;7.39;67.90
27805;BME280;15183;51.350;11.102;2023-01-25T10:57:34;101685.50;;;7.30;67.37
27805;BME280;15183;51.350;11.102;2023-01-25T11:00:05;101697.28;;;7.44;67.41
27805;BME280;15183;51.350;11.102;2023-01-25T11:02:46;101673.56;;;7.18;67.46
27805;BME280;15183;51.350;11.102;2023-01-25T11:10:46;101668.59;;;7.41;67.67
27805;BME280;15183;51.350;11.102;2023-01-25T11:15:50;101658.22;;;7.56;67.20
27805;BME280;15183;51.350;11.102;2023-01-25T11:18:25;101656.97;;;7.68;67.30
27805;BME280;15183;51.350;11.102;2023-01-25T11:21:22;101646.91;;;7.72;67.00
27805;BME280;15183;51.350;11.102;2023-01-25T11:24:16;101650.06;;;7.67;67.15
27805;BME280;15183;51.350;11.102;2023-01-25T11:26:45;101631.19;;;7.46;67.24
27805;BME280;15183;51.350;11.102;2023-01-25T11:31:42;101628.09;;;7.59;67.20
27805;BME280;15183;51.350;11.102;2023-01-25T11:34:14;101611.94;;;7.53;67.46
27805;BME280;15183;51.350;11.102;2023-01-25T11:37:39;101616.56;;;7.60;67.32
27805;BME280;15183;51.350;11.102;2023-01-25T11:40:30;101594.59;;;7.51;67.22
27805;BME280;15183;51.350;11.102;2023-01-25T11:43:54;101614.59;;;7.70;67.25
27805;BME280;15183;51.350;11.102;2023-01-25T11:46:45;101623.69;;;7.76;67.03
27805;BME280;15183;51.350;11.102;2023-01-25T11:52:42;101602.91;;;7.73;67.12
27805;BME280;15183;51.350;11.102;2023-01-25T11:55:29;101583.78;;;7.71;67.29
27805;BME280;15183;51.350;11.102;2023-01-25T12:01:11;101597.16;;;7.86;66.82
27805;BME280;15183;51.350;11.102;2023-01-25T12:06:59;101577.84;;;7.85;66.56
27805;BME280;15183;51.350;11.102;2023-01-25T12:15:23;101568.78;;;7.88;66.94
27805;BME280;15183;51.350;11.102;2023-01-25T12:18:37;101569.44;;;7.90;66.85
27805;BME280;15183;51.350;11.102;2023-01-25T12:21:20;101563.00;;;7.84;67.63
27805;BME280;15183;51.350;11.102;2023-01-25T12:29:45;101465.69;;;7.31;66.73
27805;BME280;15183;51.350;11.102;2023-01-25T12:32:25;101543.84;;;7.90;66.76
27805;BME280;15183;51.350;11.102;2023-01-25T12:35:33;101533.16;;;7.84;66.49
27805;BME280;15183;51.350;11.102;2023-01-25T12:38:41;101544.38;;;7.94;66.92
27805;BME280;15183;51.350;11.102;2023-01-25T12:41:25;101530.84;;;7.89;67.03
27805;BME280;15183;51.350;11.102;2023-01-25T12:46:51;101523.28;;;7.77;66.29
27805;BME280;15183;51.350;11.102;2023-01-25T12:52:23;101507.56;;;7.26;66.26
27805;BME280;15183;51.350;11.102;2023-01-25T12:54:56;101472.69;;;6.98;66.81
27805;BME280;15183;51.350;11.102;2023-01-25T12:57:58;101514.94;;;7.22;67.02
27805;BME280;15183;51.350;11.102;2023-01-25T13:00:56;101490.88;;;7.17;67.14
27805;BME280;15183;51.350;11.102;2023-01-25T13:09:52;101476.72;;;7.18;67.08
27805;BME280;15183;51.350;11.102;2023-01-25T13:12:22;101452.47;;;7.06;67.14
27805;BME280;15183;51.350;11.102;2023-01-25T13:14:50;101447.34;;;6.97;67.14
27805;BME280;15183;51.350;11.102;2023-01-25T13:19:52;101441.84;;;6.81;66.79
27805;BME280;15183;51.350;11.102;2023-01-25T13:22:53;101456.22;;;6.95;67.33
27805;BME280;15183;51.350;11.102;2023-01-25T13:25:23;101463.19;;;7.05;66.91
27805;BME280;15183;51.350;11.102;2023-01-25T13:27:50;101439.28;;;6.98;67.11
27805;BME280;15183;51.350;11.102;2023-01-25T13:30:33;101444.56;;;7.06;67.53
27805;BME280;15183;51.350;11.102;2023-01-25T13:33:04;101437.31;;;7.17;67.29
27805;BME280;15183;51.350;11.102;2023-01-25T13:35:38;101428.63;;;7.24;67.05
27805;BME280;15183;51.350;11.102;2023-01-25T13:38:28;101424.00;;;7.27;66.75
27805;BME280;15183;51.350;11.102;2023-01-25T13:41:10;101401.44;;;7.24;67.06
27805;BME280;15183;51.350;11.102;2023-01-25T13:43:44;101424.84;;;7.35;66.89
27805;BME280;15183;51.350;11.102;2023-01-25T13:46:15;101417.72;;;7.36;66.88
27805;BME280;15183;51.350;11.102;2023-01-25T13:48:58;101410.81;;;7.35;66.64
27805;BME280;15183;51.350;11.102;2023-01-25T13:51:29;101389.59;;;7.20;66.62
27805;BME280;15183;51.350;11.102;2023-01-25T13:53:59;101401.44;;;7.24;66.82
27805;BME280;15183;51.350;11.102;2023-01-25T13:56:33;101390.56;;;7.27;66.30
27805;BME280;15183;51.350;11.102;2023-01-25T13:59:00;101392.88;;;7.38;66.55
27805;BME280;15183;51.350;11.102;2023-01-25T14:01:30;101377.53;;;7.34;66.58
27805;BME280;15183;51.350;11.102;2023-01-25T14:04:03;101384.81;;;7.40;66.12
27805;BME280;15183;51.350;11.102;2023-01-25T14:06:35;101395.50;;;7.47;66.17
27805;BME280;15183;51.350;11.102;2023-01-25T14:09:15;101397.47;;;7.45;66.44
27805;BME280;15183;51.350;11.102;2023-01-25T14:11:57;101395.81;;;7.44;66.11
27805;BME280;15183;51.350;11.102;2023-01-25T14:14:27;101385.94;;;7.37;66.17
27805;BME280;15183;51.350;11.102;2023-01-25T14:17:22;101393.53;;;7.41;66.07
27805;BME280;15183;51.350;11.102;2023-01-25T14:19:55;101393.53;;;7.41;66.13
27805;BME280;15183;51.350;11.102;2023-01-25T14:22:31;101360.91;;;7.25;66.21
27805;BME280;15183;51.350;11.102;2023-01-25T14:25:08;101383.28;;;7.46;66.43
27805;BME280;15183;51.350;11.102;2023-01-25T14:27:58;101376.88;;;7.48;65.87
27805;BME280;15183;51.350;11.102;2023-01-25T14:30:33;101351.34;;;7.24;66.05